Time;durP1;ratioP1;P1;durP2;ratioP2;P2;SDS_P1;SDS_P2;PMS_P1;PMS_P2;Temp;Humidity;BMP_temperature;BMP_pressure;BME280_temperature;BME280_humidity;BME280_pressure;Samples;Min_cycle;Max_cycle;Signal;HPM_P1;HPM_P2
2021/07/14 00:01:42;;;;;;;;;33.50;28.50;;;;;;;;4604239;30;11192;-78
2021/07/14 00:04:07;;;;;;;;;35.00;29.25;;;;;;;;4605474;30;11932;-79
2021/07/14 00:06:32;;;;;;;;;29.33;27.33;;;;;;;;4605547;30;11124;-78
2021/07/14 00:09:16;;;;;;;;;33.75;27.00;;;;;;;;4600646;30;13022;-79
2021/07/14 00:11:52;;;;;;;;;30.50;28.00;;;;;;;;4633153;30;11907;-78
2021/07/14 00:22:31;;;;;;;;;32.50;29.75;;;;;;;;4640719;30;17032;-79
2021/07/14 00:24:57;;;;;;;;;38.75;32.50;;;;;;;;4644274;30;17148;-78
2021/07/14 00:27:24;;;;;;;;;32.25;30.00;;;;;;;;4632056;30;20338;-79
2021/07/14 00:30:10;;;;;;;;;35.75;30.00;;;;;;;;4633505;30;16822;-78
2021/07/14 00:33:22;;;;;;;;;29.50;26.25;;;;;;;;4636515;30;10053;-79
2021/07/14 00:35:47;;;;;;;;;26.25;23.25;;;;;;;;4629753;30;19514;-79
2021/07/14 00:38:36;;;;;;;;;23.75;22.00;;;;;;;;4633019;30;8926;-79
2021/07/14 00:44:16;;;;;;;;;31.50;25.00;;;;;;;;4602265;30;8874;-79
2021/07/14 00:46:44;;;;;;;;;29.50;23.00;;;;;;;;4599886;30;14842;-79
2021/07/14 00:49:10;;;;;;;;;26.25;24.00;;;;;;;;4603361;30;11182;-79
2021/07/14 00:51:35;;;;;;;;;24.75;22.50;;;;;;;;4590529;30;15071;-79
2021/07/14 00:54:24;;;;;;;;;25.25;21.75;;;;;;;;4595659;30;14029;-80
2021/07/14 00:59:58;;;;;;;;;24.50;22.00;;;;;;;;4513975;31;12120;-79
2021/07/14 01:02:25;;;;;;;;;29.25;24.25;;;;;;;;4518511;31;8905;-79
2021/07/14 01:05:05;;;;;;;;;26.50;22.25;;;;;;;;4507691;31;10858;-80
2021/07/14 01:07:35;;;;;;;;;24.50;22.50;;;;;;;;4505971;31;13126;-79
2021/07/14 01:10:18;;;;;;;;;27.00;23.00;;;;;;;;4506120;31;16247;-80
2021/07/14 01:13:01;;;;;;;;;27.50;22.75;;;;;;;;4515792;31;16643;-78
2021/07/14 01:15:28;;;;;;;;;30.75;24.25;;;;;;;;4514218;31;15539;-79
2021/07/14 01:17:57;;;;;;;;;28.25;22.75;;;;;;;;4516742;31;10528;-79
2021/07/14 01:20:28;;;;;;;;;24.25;21.25;;;;;;;;4520688;31;8862;-79
2021/07/14 01:23:23;;;;;;;;;26.25;22.50;;;;;;;;4544722;31;10918;-80
2021/07/14 01:25:48;;;;;;;;;25.50;22.75;;;;;;;;4548721;31;12336;-79
2021/07/14 01:28:13;;;;;;;;;29.00;22.00;;;;;;;;4543601;31;11694;-78
2021/07/14 01:30:59;;;;;;;;;28.50;23.25;;;;;;;;4529368;31;10375;-79
2021/07/14 01:37:39;;;;;;;;;;;;;;;;;;;;;
2021/07/14 01:43:17;;;;;;;;;21.75;19.25;;;;;;;;4541573;31;10889;-79
2021/07/14 01:45:42;;;;;;;;;21.25;19.00;;;;;;;;4535243;31;10751;-79
2021/07/14 01:48:10;;;;;;;;;13.25;13.25;;;;;;;;4537468;31;12538;-82
2021/07/14 01:50:36;;;;;;;;;18.25;16.25;;;;;;;;4529920;31;12541;-78
2021/07/14 01:53:02;;;;;;;;;24.25;17.00;;;;;;;;4545579;31;11242;-81
2021/07/14 01:55:28;;;;;;;;;15.50;13.75;;;;;;;;4543173;31;13903;-79
2021/07/14 01:57:54;;;;;;;;;19.50;16.00;;;;;;;;4547140;31;12021;-79
2021/07/14 02:00:20;;;;;;;;;17.25;15.75;;;;;;;;4538364;31;10391;-80
2021/07/14 02:03:04;;;;;;;;;18.75;14.25;;;;;;;;4539659;31;14564;-80
2021/07/14 02:05:30;;;;;;;;;15.50;14.75;;;;;;;;4536319;31;13675;-80
2021/07/14 02:07:59;;;;;;;;;18.75;14.25;;;;;;;;4532880;31;12577;-80
2021/07/14 02:10:25;;;;;;;;;15.00;14.00;;;;;;;;4547138;31;11006;-79
2021/07/14 02:12:51;;;;;;;;;18.50;16.00;;;;;;;;4557294;31;17031;-79
2021/07/14 02:15:17;;;;;;;;;18.00;15.00;;;;;;;;4579702;30;16850;-79
2021/07/14 02:17:56;;;;;;;;;13.75;11.00;;;;;;;;4580513;30;13356;-80
2021/07/14 02:20:21;;;;;;;;;13.75;11.00;;;;;;;;4644113;30;9674;-79
2021/07/14 02:22:47;;;;;;;;;10.25;9.00;;;;;;;;4636277;30;10856;-79
2021/07/14 02:25:13;;;;;;;;;10.00;10.00;;;;;;;;4640216;30;12842;-79
2021/07/14 02:27:38;;;;;;;;;10.00;9.00;;;;;;;;4639102;30;16489;-80
2021/07/14 02:30:21;;;;;;;;;9.25;8.00;;;;;;;;4635016;30;17060;-78
2021/07/14 02:32:54;;;;;;;;;15.00;10.00;;;;;;;;4633965;30;14856;-79
2021/07/14 02:35:20;;;;;;;;;16.00;8.75;;;;;;;;4633627;30;8851;-78
2021/07/14 02:38:04;;;;;;;;;10.75;8.50;;;;;;;;4624278;30;10576;-79
2021/07/14 02:40:34;;;;;;;;;15.75;10.25;;;;;;;;4633343;30;13025;-82
2021/07/14 02:43:37;;;;;;;;;8.75;7.25;;;;;;;;4637221;30;9853;-79
2021/07/14 02:46:05;;;;;;;;;11.75;9.75;;;;;;;;4645528;30;14780;-78
2021/07/14 03:01:12;;;;;;;;;14.75;13.25;;;;;;;;4532976;31;10614;-79
2021/07/14 03:03:37;;;;;;;;;17.00;12.50;;;;;;;;4526351;31;12581;-78
2021/07/14 03:06:03;;;;;;;;;16.75;14.00;;;;;;;;4526912;31;12596;-80
2021/07/14 03:08:30;;;;;;;;;14.75;12.75;;;;;;;;4536848;31;8894;-79
2021/07/14 03:10:56;;;;;;;;;15.50;13.25;;;;;;;;4535242;31;12454;-79
2021/07/14 03:13:23;;;;;;;;;15.75;12.50;;;;;;;;4534638;31;16353;-79
2021/07/14 03:15:58;;;;;;;;;14.00;10.50;;;;;;;;4538869;31;11730;-79
2021/07/14 03:19:04;;;;;;;;;14.75;12.00;;;;;;;;4527210;31;14253;-79
2021/07/14 03:21:33;;;;;;;;;13.75;10.75;;;;;;;;4532436;31;12973;-79
2021/07/14 03:23:59;;;;;;;;;11.00;9.25;;;;;;;;4540009;31;11898;-79
2021/07/14 03:26:25;;;;;;;;;11.50;9.75;;;;;;;;4541122;31;9037;-79
2021/07/14 03:28:51;;;;;;;;;12.25;11.25;;;;;;;;4576032;30;10410;-78
2021/07/14 03:31:36;;;;;;;;;12.25;8.50;;;;;;;;4600580;30;15085;-79
2021/07/14 03:34:22;;;;;;;;;11.25;10.00;;;;;;;;4604337;30;12922;-81
2021/07/14 03:39:57;;;;;;;;;11.25;9.00;;;;;;;;4629129;30;8971;-80
2021/07/14 03:42:32;;;;;;;;;11.00;9.75;;;;;;;;4558853;31;10630;-79
2021/07/14 03:45:15;;;;;;;;;11.25;8.00;;;;;;;;4571652;31;12700;-80
2021/07/14 03:47:41;;;;;;;;;8.50;8.25;;;;;;;;4576954;31;20117;-77
2021/07/14 03:50:07;;;;;;;;;13.00;10.25;;;;;;;;4577390;31;17453;-78
2021/07/14 03:52:32;;;;;;;;;11.00;8.75;;;;;;;;4583565;31;21366;-78
2021/07/14 03:55:00;;;;;;;;;10.25;8.75;;;;;;;;4574866;31;23448;-78
2021/07/14 03:57:48;;;;;;;;;8.75;8.25;;;;;;;;4574438;31;12050;-77
2021/07/14 04:00:13;;;;;;;;;9.00;9.00;;;;;;;;4559975;31;23907;-77
2021/07/14 04:02:41;;;;;;;;;11.00;9.00;;;;;;;;4581364;31;21994;-77
2021/07/14 04:05:07;;;;;;;;;9.00;7.00;;;;;;;;4578981;31;14567;-78
2021/07/14 04:07:33;;;;;;;;;9.00;7.75;;;;;;;;4573507;31;20056;-78
2021/07/14 04:10:00;;;;;;;;;8.75;8.00;;;;;;;;4574494;31;20866;-79
2021/07/14 04:12:26;;;;;;;;;8.75;6.50;;;;;;;;4581402;31;15114;-77
2021/07/14 04:14:51;;;;;;;;;8.75;7.75;;;;;;;;4582754;31;13934;-77
2021/07/14 04:17:16;;;;;;;;;9.25;6.75;;;;;;;;4582920;31;8902;-77
2021/07/14 04:19:42;;;;;;;;;10.00;5.75;;;;;;;;4611358;30;16459;-77
2021/07/14 04:22:08;;;;;;;;;11.25;8.00;;;;;;;;4642606;30;14693;-78
2021/07/14 04:24:33;;;;;;;;;6.50;6.00;;;;;;;;4648506;30;10851;-77
2021/07/14 04:26:59;;;;;;;;;9.75;7.50;;;;;;;;4642906;30;18908;-77
2021/07/14 04:29:25;;;;;;;;;9.00;8.00;;;;;;;;4652360;30;8907;-77
2021/07/14 04:31:50;;;;;;;;;6.00;6.00;;;;;;;;4645429;30;11754;-78
2021/07/14 04:34:15;;;;;;;;;7.00;7.00;;;;;;;;4636139;30;15080;-77
2021/07/14 04:36:41;;;;;;;;;7.75;6.50;;;;;;;;4632440;30;9340;-77
2021/07/14 04:39:08;;;;;;;;;9.75;6.25;;;;;;;;4628308;30;20464;-78
2021/07/14 04:41:33;;;;;;;;;9.25;8.50;;;;;;;;4640250;30;9447;-78
2021/07/14 04:44:02;;;;;;;;;7.50;5.50;;;;;;;;4643290;30;9562;-78
2021/07/14 04:46:27;;;;;;;;;6.50;6.50;;;;;;;;4641712;30;17035;-78
2021/07/14 04:48:52;;;;;;;;;7.50;7.00;;;;;;;;4645637;30;13079;-77
2021/07/14 04:51:18;;;;;;;;;8.50;7.00;;;;;;;;4638609;30;17157;-77
2021/07/14 04:53:44;;;;;;;;;9.75;7.25;;;;;;;;4648397;30;12598;-78
2021/07/14 04:56:09;;;;;;;;;8.50;8.50;;;;;;;;4649598;30;13949;-78
2021/07/14 04:58:34;;;;;;;;;6.50;6.25;;;;;;;;4647239;30;10707;-77
2021/07/14 05:01:00;;;;;;;;;10.25;7.00;;;;;;;;4639738;30;10648;-77
2021/07/14 05:03:25;;;;;;;;;9.00;7.25;;;;;;;;4647117;30;13743;-77
2021/07/14 05:05:50;;;;;;;;;10.50;7.25;;;;;;;;4635670;30;13705;-78
2021/07/14 05:08:16;;;;;;;;;11.75;7.75;;;;;;;;4636239;30;8980;-77
2021/07/14 05:10:42;;;;;;;;;9.75;6.50;;;;;;;;4647445;30;11130;-78
2021/07/14 05:13:07;;;;;;;;;8.50;7.00;;;;;;;;4650053;30;17018;-77
2021/07/14 05:15:35;;;;;;;;;11.00;7.75;;;;;;;;4626488;30;16407;-78
2021/07/14 05:18:00;;;;;;;;;9.50;8.75;;;;;;;;4643490;30;20860;-77
2021/07/14 05:20:26;;;;;;;;;9.75;7.25;;;;;;;;4640905;30;8875;-77
2021/07/14 05:22:51;;;;;;;;;11.75;8.25;;;;;;;;4636946;30;25013;-78
2021/07/14 05:25:16;;;;;;;;;12.50;7.50;;;;;;;;4635956;30;20241;-78
2021/07/14 05:27:42;;;;;;;;;10.25;8.00;;;;;;;;4638436;30;20849;-77
2021/07/14 05:30:08;;;;;;;;;10.50;8.00;;;;;;;;4646816;30;28448;-77
2021/07/14 05:32:33;;;;;;;;;13.00;9.00;;;;;;;;4649006;30;28903;-77
2021/07/14 05:34:58;;;;;;;;;14.25;8.00;;;;;;;;4629720;30;19702;-78
2021/07/14 05:37:24;;;;;;;;;11.25;9.75;;;;;;;;4629110;30;23174;-78
2021/07/14 05:39:49;;;;;;;;;8.50;8.00;;;;;;;;4630937;30;19228;-77
2021/07/14 05:42:14;;;;;;;;;7.00;6.67;;;;;;;;4638872;30;19937;-77
2021/07/14 05:44:39;;;;;;;;;12.00;10.50;;;;;;;;4630401;30;12641;-78
2021/07/14 05:47:24;;;;;;;;;12.25;8.50;;;;;;;;4642911;30;10639;-77
2021/07/14 05:49:52;;;;;;;;;10.75;10.00;;;;;;;;4644166;30;16193;-77
2021/07/14 05:52:17;;;;;;;;;11.25;8.75;;;;;;;;4642701;30;10672;-77
2021/07/14 05:54:42;;;;;;;;;10.00;7.75;;;;;;;;4643130;30;12943;-77
2021/07/14 05:57:08;;;;;;;;;7.50;7.50;;;;;;;;4638884;30;17232;-78
2021/07/14 05:59:33;;;;;;;;;14.00;10.00;;;;;;;;4640108;30;17620;-77
2021/07/14 06:01:59;;;;;;;;;9.25;8.50;;;;;;;;4649429;30;12624;-77
2021/07/14 06:04:24;;;;;;;;;10.00;9.00;;;;;;;;4645392;30;10786;-77
2021/07/14 06:06:49;;;;;;;;;12.00;9.50;;;;;;;;4625963;30;12530;-77
2021/07/14 06:09:15;;;;;;;;;10.75;9.75;;;;;;;;4624439;30;9894;-77
2021/07/14 06:11:41;;;;;;;;;12.00;8.50;;;;;;;;4639574;30;15940;-78
2021/07/14 06:14:06;;;;;;;;;10.00;9.75;;;;;;;;4647746;30;10115;-78
2021/07/14 06:16:34;;;;;;;;;12.00;9.25;;;;;;;;4636973;30;10718;-78
2021/07/14 06:19:00;;;;;;;;;15.25;10.50;;;;;;;;4063225;30;17541463;-76
2021/07/14 06:21:25;;;;;;;;;8.25;8.25;;;;;;;;4536957;30;2261807;-78
2021/07/14 06:23:50;;;;;;;;;9.00;8.00;;;;;;;;4602094;30;46286;-78
2021/07/14 06:26:16;;;;;;;;;9.25;7.50;;;;;;;;4612027;30;45500;-78
2021/07/14 06:38:43;;;;;;;;;8.50;7.25;;;;;;;;4517791;31;45663;-80
2021/07/14 06:44:26;;;;;;;;;6.00;6.00;;;;;;;;4490751;31;46398;-78
2021/07/14 06:46:51;;;;;;;;;6.50;6.00;;;;;;;;4491180;31;45957;-78
2021/07/14 06:49:16;;;;;;;;;11.50;7.50;;;;;;;;4492463;31;45600;-79
2021/07/14 06:51:42;;;;;;;;;5.25;5.25;;;;;;;;4491661;31;45645;-80
2021/07/14 06:54:07;;;;;;;;;6.25;6.25;;;;;;;;4482633;31;46826;-81
2021/07/14 06:56:58;;;;;;;;;6.50;6.50;;;;;;;;4486096;31;45777;-80
2021/07/14 06:59:23;;;;;;;;;6.00;5.50;;;;;;;;4479095;31;46028;-79
2021/07/14 07:01:49;;;;;;;;;6.00;5.00;;;;;;;;4489461;31;45845;-80
2021/07/14 07:05:01;;;;;;;;;6.75;5.25;;;;;;;;4475565;31;45535;-80
2021/07/14 07:07:25;;;;;;;;;9.50;6.50;;;;;;;;4479585;31;45801;-78
2021/07/14 07:09:52;;;;;;;;;7.50;7.00;;;;;;;;4474292;31;47222;-78
2021/07/14 07:12:17;;;;;;;;;11.50;8.00;;;;;;;;4508912;31;45742;-80
2021/07/14 07:14:43;;;;;;;;;6.00;5.00;;;;;;;;4533589;31;47462;-81
2021/07/14 07:17:08;;;;;;;;;6.75;6.75;;;;;;;;4536570;31;45647;-81
2021/07/14 07:22:40;;;;;;;;;6.25;6.25;;;;;;;;4620658;30;46355;-80
2021/07/14 07:25:06;;;;;;;;;6.50;6.25;;;;;;;;4600885;30;47053;-81
2021/07/14 07:31:04;;;;;;;;;7.50;6.00;;;;;;;;4570553;30;46322;-82
2021/07/14 07:36:34;;;;;;;;;5.00;5.00;;;;;;;;4586600;30;45724;-83
2021/07/14 07:39:42;;;;;;;;;8.75;5.75;;;;;;;;4590059;30;45938;-82
2021/07/14 07:42:01;;;;;;;;;8.50;7.00;;;;;;;;4575525;30;45768;-83
2021/07/14 07:44:27;;;;;;;;;9.00;7.00;;;;;;;;4579224;30;45579;-82
2021/07/14 07:46:55;;;;;;;;;10.00;6.75;;;;;;;;4574651;30;47687;-83
2021/07/14 07:49:23;;;;;;;;;7.00;6.00;;;;;;;;4572617;30;45940;-84
2021/07/14 08:01:14;;;;;;;;;10.00;8.75;;;;;;;;4569586;24;45598;-82
2021/07/14 08:03:44;;;;;;;;;9.50;8.00;;;;;;;;4643079;30;45550;-83
2021/07/14 09:03:23;;;;;;;;;5.75;5.50;;;;;;;;4771549;24;45508;-95
2021/07/14 09:05:56;;;;;;;;;7.00;6.00;;;;;;;;4625302;30;45407;-94
2021/07/14 09:08:22;;;;;;;;;8.50;5.75;;;;;;;;4641041;30;45960;-95
2021/07/14 09:31:55;;;;;;;;;6.25;4.00;;;;;;;;4618325;24;45745;-84
2021/07/14 09:34:21;;;;;;;;;5.25;5.25;;;;;;;;4616085;30;45585;-82
2021/07/14 09:37:07;;;;;;;;;;;;;;;;;;;;;
2021/07/14 09:43:13;;;;;;;;;7.00;6.50;;;;;;;;4626325;30;45425;-82
2021/07/14 09:48:52;;;;;;;;;6.00;5.75;;;;;;;;4632606;30;45312;-81
2021/07/14 09:51:27;;;;;;;;;7.00;5.00;;;;;;;;4626898;30;45756;-80
2021/07/14 09:54:19;;;;;;;;;7.50;7.00;;;;;;;;4611193;30;45535;-82
2021/07/14 09:56:46;;;;;;;;;7.00;6.00;;;;;;;;4606580;30;45490;-82
2021/07/14 10:05:48;;;;;;;;;6.00;6.00;;;;;;;;4631104;30;45555;-83
2021/07/14 10:08:26;;;;;;;;;5.50;5.50;;;;;;;;4609057;30;45771;-85
2021/07/14 10:14:04;;;;;;;;;8.25;6.75;;;;;;;;4555186;30;45607;-80
2021/07/14 10:16:37;;;;;;;;;5.25;5.25;;;;;;;;4574895;30;45886;-81
2021/07/14 10:31:36;;;;;;;;;;;;;;;;;;;;;
2021/07/14 10:40:24;;;;;;;;;7.50;5.00;;;;;;;;4673016;24;45342;-96
2021/07/14 10:42:57;;;;;;;;;6.00;5.00;;;;;;;;5030242;24;45865;-84
2021/07/14 10:49:04;;;;;;;;;6.50;6.50;;;;;;;;4645151;30;46417;-82
2021/07/14 10:57:20;;;;;;;;;5.50;5.50;;;;;;;;4604142;30;45543;-82
2021/07/14 10:59:49;;;;;;;;;7.50;6.25;;;;;;;;4575209;30;46354;-81
2021/07/14 11:06:30;;;;;;;;;;;;;;;;;;;;;
2021/07/14 11:08:59;;;;;;;;;6.25;6.25;;;;;;;;4587128;30;46299;-78
2021/07/14 11:15:17;;;;;;;;;9.50;8.00;;;;;;;;4515757;31;46054;-83
2021/07/14 11:21:09;;;;;;;;;6.75;6.50;;;;;;;;4451791;31;45347;-79
2021/07/14 11:24:41;;;;;;;;;8.50;7.50;;;;;;;;4450462;31;47631;-79
2021/07/14 11:26:40;;;;;;;;;8.50;7.50;;;;;;;;4428447;31;45602;-77
2021/07/14 11:29:09;;;;;;;;;8.75;7.50;;;;;;;;4437243;31;45652;-80
2021/07/14 11:35:14;;;;;;;;;10.00;9.00;;;;;;;;4462175;31;45667;-80
2021/07/14 11:37:44;;;;;;;;;11.75;10.25;;;;;;;;4464476;31;45487;-80
2021/07/14 11:43:41;;;;;;;;;8.75;8.75;;;;;;;;4464990;31;46904;-82
2021/07/14 11:46:21;;;;;;;;;;;;;;;;;;;;;
2021/07/14 11:52:36;;;;;;;;;9.00;9.00;;;;;;;;4432906;31;45685;-81
2021/07/14 12:01:57;;;;;;;;;7.50;7.50;;;;;;;;4564328;24;45475;-96
2021/07/14 12:04:23;;;;;;;;;8.75;7.75;;;;;;;;4654614;30;45457;-93
2021/07/14 12:06:57;;;;;;;;;7.50;7.50;;;;;;;;4647368;30;45583;-96
2021/07/14 12:09:23;;;;;;;;;7.25;7.25;;;;;;;;4649103;30;45725;-95
2021/07/14 12:14:58;;;;;;;;;8.25;8.25;;;;;;;;4639487;30;45497;-80
2021/07/14 12:18:09;;;;;;;;;;;;;;;;;;;;;
2021/07/14 12:20:35;;;;;;;;;13.75;11.25;;;;;;;;4553692;31;70979;-79
2021/07/14 12:27:03;;;;;;;;;10.50;10.25;;;;;;;;4539797;31;46069;-78
2021/07/14 12:29:28;;;;;;;;;7.25;7.25;;;;;;;;4525580;31;45875;-80
2021/07/14 12:31:53;;;;;;;;;9.75;9.50;;;;;;;;4534623;31;46533;-79
2021/07/14 12:34:24;;;;;;;;;9.25;9.25;;;;;;;;4529999;31;45832;-80
2021/07/14 12:36:54;;;;;;;;;14.00;9.25;;;;;;;;4519101;31;47434;-79
2021/07/14 12:39:23;;;;;;;;;9.50;7.75;;;;;;;;4522809;31;45525;-79
2021/07/14 12:41:55;;;;;;;;;13.25;11.25;;;;;;;;4519080;31;47483;-80
2021/07/14 12:44:21;;;;;;;;;9.25;9.25;;;;;;;;4535347;31;45641;-80
2021/07/14 12:47:51;;;;;;;;;13.50;10.50;;;;;;;;4535774;31;45578;-79
2021/07/14 12:54:25;;;;;;;;;10.50;8.75;;;;;;;;4538110;31;47191;-78
2021/07/14 12:56:32;;;;;;;;;10.00;8.25;;;;;;;;4481277;31;45570;-80
2021/07/14 13:04:04;;;;;;;;;10.00;8.25;;;;;;;;5263381;24;46418;-95
2021/07/14 13:11:40;;;;;;;;;13.50;11.25;;;;;;;;5194148;24;45835;-81
2021/07/14 13:17:27;;;;;;;;;10.25;9.25;;;;;;;;4669187;30;45575;-78
2021/07/14 13:19:59;;;;;;;;;10.75;10.75;;;;;;;;4654243;30;45546;-79
2021/07/14 13:22:43;;;;;;;;;10.00;8.75;;;;;;;;4652543;30;45694;-80
2021/07/14 13:28:19;;;;;;;;;12.50;9.25;;;;;;;;4662954;30;45585;-78
2021/07/14 13:37:06;;;;;;;;;11.75;8.50;;;;;;;;4650168;30;47318;-79
2021/07/14 13:40:09;;;;;;;;;9.00;7.50;;;;;;;;4667833;30;46229;-80
2021/07/14 13:47:54;;;;;;;;;10.00;9.00;;;;;;;;4741644;24;45754;-96
2021/07/14 13:50:19;;;;;;;;;10.25;9.25;;;;;;;;4705851;24;45784;-80
2021/07/14 13:53:04;;;;;;;;;10.50;10.00;;;;;;;;4702424;30;45787;-80
2021/07/14 13:56:02;;;;;;;;;;;;;;;;;;;;;
2021/07/14 13:58:32;;;;;;;;;9.00;8.25;;;;;;;;4686976;30;75492;-81
2021/07/14 14:04:31;;;;;;;;;13.00;10.75;;;;;;;;4643349;30;45672;-81
2021/07/14 14:07:26;;;;;;;;;9.50;7.50;;;;;;;;4676145;30;45666;-81
2021/07/14 14:09:54;;;;;;;;;10.75;9.75;;;;;;;;4648308;30;48180;-79
2021/07/14 14:14:55;;;;;;;;;9.50;9.25;;;;;;;;4794852;24;45934;-95
2021/07/14 14:17:21;;;;;;;;;10.25;10.25;;;;;;;;5128812;24;45107;-81
2021/07/14 14:19:46;;;;;;;;;14.75;10.75;;;;;;;;4682702;30;46754;-80
2021/07/14 14:22:12;;;;;;;;;11.75;11.75;;;;;;;;4690850;24;50105;-95
2021/07/14 14:24:38;;;;;;;;;10.50;10.00;;;;;;;;4688160;30;45539;-94
2021/07/14 14:27:08;;;;;;;;;11.50;10.50;;;;;;;;4691195;30;45498;-96
2021/07/14 14:29:36;;;;;;;;;12.00;11.50;;;;;;;;4704391;30;46132;-96
2021/07/14 14:39:48;;;;;;;;;12.25;10.75;;;;;;;;5069215;24;45327;-95
2021/07/14 14:44:52;;;;;;;;;12.25;12.25;;;;;;;;4849167;24;45955;-96
2021/07/14 15:01:09;;;;;;;;;13.50;10.00;;;;;;;;4707913;30;45589;-95
2021/07/14 15:03:35;;;;;;;;;13.50;10.75;;;;;;;;4708230;30;44884;-93
2021/07/14 15:08:53;;;;;;;;;10.50;9.75;;;;;;;;4738605;24;46125;-95
2021/07/14 15:11:19;;;;;;;;;10.25;9.50;;;;;;;;4709167;30;45631;-96
2021/07/14 15:13:44;;;;;;;;;13.75;11.50;;;;;;;;4711120;30;45431;-95
2021/07/14 15:16:15;;;;;;;;;15.00;11.50;;;;;;;;4713802;30;44926;-96
2021/07/14 15:25:36;;;;;;;;;10.50;8.00;;;;;;;;4624563;30;45708;-78
2021/07/14 15:33:25;;;;;;;;;9.75;8.00;;;;;;;;4682886;30;45750;-78
2021/07/14 15:44:55;;;;;;;;;7.75;6.50;;;;;;;;3124138;28;46122;-79
2021/07/14 15:47:20;;;;;;;;;8.75;7.00;;;;;;;;4666847;30;45618;-78
2021/07/14 15:52:35;;;;;;;;;7.50;7.50;;;;;;;;4732989;24;45730;-76
2021/07/14 15:55:02;;;;;;;;;10.00;7.75;;;;;;;;4685397;30;45605;-78
2021/07/14 15:57:30;;;;;;;;;9.75;9.00;;;;;;;;4687750;30;45479;-78
2021/07/14 15:59:58;;;;;;;;;8.25;8.25;;;;;;;;4687489;24;45475;-77
2021/07/14 16:02:23;;;;;;;;;11.50;9.50;;;;;;;;4689445;30;46121;-76
2021/07/14 16:04:49;;;;;;;;;10.00;9.75;;;;;;;;4688487;30;46473;-75
2021/07/14 16:07:16;;;;;;;;;10.00;9.50;;;;;;;;4689724;30;45616;-77
2021/07/14 16:09:42;;;;;;;;;9.00;8.25;;;;;;;;4687181;30;45654;-76
2021/07/14 16:12:09;;;;;;;;;11.00;9.00;;;;;;;;4680269;30;45982;-76
2021/07/14 16:14:37;;;;;;;;;11.50;9.75;;;;;;;;4705375;30;45651;-75
2021/07/14 16:17:12;;;;;;;;;;;;;;;;;;;;;
2021/07/14 16:19:41;;;;;;;;;11.25;9.75;;;;;;;;4685930;30;69039;-76
2021/07/14 16:22:22;;;;;;;;;10.50;10.00;;;;;;;;4685038;30;45636;-80
2021/07/14 16:27:26;;;;;;;;;16.50;12.25;;;;;;;;4898927;24;45590;-77
2021/07/14 16:50:33;;;;;;;;;12.25;10.00;;;;;;;;4682662;30;45642;-76
2021/07/14 16:53:06;;;;;;;;;13.00;11.75;;;;;;;;4683148;30;45888;-78
2021/07/14 16:55:31;;;;;;;;;14.50;11.00;;;;;;;;4674864;30;46297;-77
2021/07/14 16:57:56;;;;;;;;;15.33;13.67;;;;;;;;4662607;30;45543;-77
2021/07/14 17:05:28;;;;;;;;;13.25;12.50;;;;;;;;4666464;30;45887;-76
2021/07/14 17:07:54;;;;;;;;;11.00;10.50;;;;;;;;4663808;30;45527;-77
2021/07/14 17:10:19;;;;;;;;;16.67;13.00;;;;;;;;4659389;30;45571;-77
2021/07/14 17:12:44;;;;;;;;;15.50;13.00;;;;;;;;4660539;30;45557;-77
2021/07/14 17:15:19;;;;;;;;;17.00;15.00;;;;;;;;4668717;30;45545;-75
2021/07/14 17:17:44;;;;;;;;;17.00;14.50;;;;;;;;4664812;30;45584;-77
2021/07/14 17:20:10;;;;;;;;;16.50;13.75;;;;;;;;4650741;30;45658;-77
2021/07/14 17:25:55;;;;;;;;;17.00;14.75;;;;;;;;4597209;30;45413;-76
2021/07/14 17:28:21;;;;;;;;;16.75;11.50;;;;;;;;4577092;31;45478;-76
2021/07/14 17:37:12;;;;;;;;;16.75;12.50;;;;;;;;4568619;31;45307;-76
2021/07/14 17:39:37;;;;;;;;;20.25;13.00;;;;;;;;4540150;31;46042;-77
2021/07/14 17:42:13;;;;;;;;;;;;;;;;;;;;;
2021/07/14 17:53:32;;;;;;;;;13.75;12.50;;;;;;;;5455059;24;46012;-96
2021/07/14 17:55:59;;;;;;;;;11.75;10.00;;;;;;;;4721062;24;46546;-77
2021/07/14 17:58:25;;;;;;;;;15.00;13.25;;;;;;;;4679990;30;46174;-78
2021/07/14 18:01:18;;;;;;;;;13.00;12.50;;;;;;;;5000886;24;45642;-80
2021/07/14 18:03:46;;;;;;;;;13.50;11.75;;;;;;;;4677016;30;45841;-79
2021/07/14 18:18:25;;;;;;;;;13.50;13.50;;;;;;;;4603596;30;45485;-78
2021/07/14 18:20:59;;;;;;;;;14.75;14.00;;;;;;;;4593772;30;45813;-77
2021/07/14 18:24:09;;;;;;;;;13.00;12.50;;;;;;;;4599694;30;45939;-77
2021/07/14 18:26:13;;;;;;;;;15.50;13.25;;;;;;;;4588375;30;45368;-77
2021/07/14 18:31:42;;;;;;;;;16.00;13.50;;;;;;;;4598980;30;45758;-77
2021/07/14 18:34:07;;;;;;;;;21.00;17.25;;;;;;;;4640916;24;45614;-79
2021/07/14 18:36:34;;;;;;;;;20.67;15.67;;;;;;;;4682623;30;45611;-77
2021/07/14 18:41:35;;;;;;;;;19.50;18.25;;;;;;;;5332794;24;46129;-95
2021/07/14 18:46:37;;;;;;;;;20.50;16.75;;;;;;;;5341673;24;45959;-77
2021/07/14 18:49:24;;;;;;;;;15.00;13.25;;;;;;;;4680122;24;45603;-79
2021/07/14 18:52:11;;;;;;;;;15.75;15.00;;;;;;;;4664040;30;45793;-80
2021/07/14 19:00:47;;;;;;;;;18.50;15.50;;;;;;;;4702430;24;45432;-95
2021/07/14 19:03:12;;;;;;;;;16.00;15.50;;;;;;;;4699817;30;45780;-95
2021/07/14 19:08:08;;;;;;;;;18.50;17.75;;;;;;;;4659468;30;45614;-77
2021/07/14 19:10:34;;;;;;;;;17.75;14.75;;;;;;;;4660130;30;45548;-77
2021/07/14 19:12:59;;;;;;;;;16.50;16.00;;;;;;;;4669127;30;45532;-77
2021/07/14 19:15:25;;;;;;;;;17.50;17.25;;;;;;;;4661174;30;45822;-78
2021/07/14 19:17:51;;;;;;;;;17.75;15.25;;;;;;;;4667438;30;45440;-76
2021/07/14 19:20:16;;;;;;;;;14.50;14.00;;;;;;;;4669056;30;45793;-77
2021/07/14 19:22:42;;;;;;;;;16.75;15.25;;;;;;;;4665776;30;45522;-76
2021/07/14 19:25:07;;;;;;;;;19.00;17.25;;;;;;;;4645575;30;45633;-76
2021/07/14 19:27:33;;;;;;;;;17.25;16.00;;;;;;;;4664789;30;45993;-76
2021/07/14 19:30:01;;;;;;;;;20.25;20.25;;;;;;;;4661974;30;45842;-77
2021/07/14 19:39:21;;;;;;;;;17.75;15.50;;;;;;;;4680759;24;44904;-95
2021/07/14 19:41:46;;;;;;;;;16.25;13.75;;;;;;;;4683989;30;45513;-95
2021/07/14 19:44:11;;;;;;;;;16.25;15.25;;;;;;;;4696754;30;46254;-95
2021/07/14 19:46:36;;;;;;;;;16.75;14.25;;;;;;;;4687682;30;45468;-96
2021/07/14 19:49:05;;;;;;;;;18.67;15.00;;;;;;;;5085589;24;45910;-96
2021/07/14 19:53:58;;;;;;;;;19.50;18.00;;;;;;;;4715747;24;45302;-96
2021/07/14 19:56:23;;;;;;;;;17.33;15.67;;;;;;;;4707113;30;45455;-96
2021/07/14 19:58:48;;;;;;;;;24.00;17.75;;;;;;;;4707352;30;45403;-95
2021/07/14 20:01:32;;;;;;;;;17.75;17.00;;;;;;;;4696220;30;44923;-96
2021/07/14 20:04:18;;;;;;;;;16.00;14.00;;;;;;;;4767662;24;45456;-96
2021/07/14 20:06:43;;;;;;;;;20.75;17.00;;;;;;;;4769426;24;44917;-96
2021/07/14 20:14:21;;;;;;;;;21.00;19.00;;;;;;;;4727382;24;47186;-79
2021/07/14 20:19:27;;;;;;;;;20.50;19.25;;;;;;;;5436301;24;46261;-95
2021/07/14 20:24:27;;;;;;;;;25.00;19.50;;;;;;;;4510287;28;45819;-78
2021/07/14 20:27:08;;;;;;;;;;;;;;;;;;;;;
2021/07/14 20:30:04;;;;;;;;;;;;;;;;;;;;;
2021/07/14 20:41:23;;;;;;;;;18.00;16.25;;;;;;;;4944019;24;46057;-95
2021/07/14 20:43:48;;;;;;;;;18.00;15.50;;;;;;;;4700220;30;44842;-95
2021/07/14 20:46:14;;;;;;;;;20.75;17.75;;;;;;;;4691206;30;47331;-94
2021/07/14 20:48:40;;;;;;;;;17.50;14.75;;;;;;;;4700685;30;44863;-95
2021/07/14 20:51:05;;;;;;;;;17.50;16.75;;;;;;;;4676747;30;45635;-94
2021/07/14 20:53:33;;;;;;;;;21.50;16.25;;;;;;;;4694896;30;45375;-93
2021/07/14 21:03:49;;;;;;;;;16.50;16.50;;;;;;;;5057870;24;45761;-80
2021/07/14 21:40:53;;;;;;;;;15.50;13.25;;;;;;;;5179592;24;45650;-83
2021/07/14 21:52:41;;;;;;;;;13.50;11.75;;;;;;;;4633175;30;45513;-78
2021/07/14 22:01:28;;;;;;;;;10.25;9.00;;;;;;;;4588029;24;45662;-95
2021/07/14 22:03:53;;;;;;;;;14.25;12.00;;;;;;;;4695601;30;46376;-95
2021/07/14 22:06:18;;;;;;;;;12.50;12.50;;;;;;;;4696722;30;44978;-95
2021/07/14 22:08:44;;;;;;;;;14.50;13.00;;;;;;;;4682187;30;45500;-96
2021/07/14 22:11:15;;;;;;;;;12.75;12.75;;;;;;;;4683983;30;45628;-95
2021/07/14 22:13:41;;;;;;;;;15.00;13.00;;;;;;;;4704283;30;45540;-96
2021/07/14 22:18:48;;;;;;;;;15.75;13.75;;;;;;;;4703260;24;45969;-80
2021/07/14 22:21:26;;;;;;;;;12.00;11.00;;;;;;;;4656379;30;45876;-78
2021/07/14 22:23:59;;;;;;;;;12.50;9.25;;;;;;;;4648022;30;48168;-77
2021/07/14 22:26:33;;;;;;;;;14.75;12.00;;;;;;;;4642037;30;46009;-77
2021/07/14 22:29:24;;;;;;;;;11.75;10.50;;;;;;;;4658460;30;45962;-79
2021/07/14 22:31:54;;;;;;;;;14.00;11.75;;;;;;;;4624172;30;45758;-78
2021/07/14 22:34:23;;;;;;;;;13.25;11.00;;;;;;;;4618293;30;46227;-79
2021/07/14 22:40:20;;;;;;;;;14.75;12.50;;;;;;;;4590600;30;45595;-81
2021/07/14 22:42:46;;;;;;;;;11.50;11.00;;;;;;;;4591967;30;45592;-80
2021/07/14 22:45:21;;;;;;;;;11.75;11.50;;;;;;;;4587705;30;46839;-80
2021/07/14 22:47:46;;;;;;;;;13.00;11.50;;;;;;;;4587580;30;46219;-81
2021/07/14 22:50:13;;;;;;;;;10.25;10.25;;;;;;;;4576946;30;45971;-81
2021/07/14 22:55:42;;;;;;;;;11.75;11.00;;;;;;;;4583134;30;45909;-81
2021/07/14 22:58:08;;;;;;;;;12.50;12.50;;;;;;;;4593579;30;45771;-81
2021/07/14 23:10:21;;;;;;;;;11.00;10.50;;;;;;;;4481996;31;45886;-81
2021/07/14 23:19:25;;;;;;;;;11.00;9.50;;;;;;;;4441405;31;45678;-81
2021/07/14 23:22:17;;;;;;;;;13.75;11.75;;;;;;;;4443718;31;45645;-81